sensor_id;sensor_type;location;lat;lon;timestamp;temperature;humidity
262;DHT22;114;48.260;10.988;2023-02-28T00:00:28;-1.90;1.00
262;DHT22;114;48.260;10.988;2023-02-28T00:02:54;-2.40;1.00
262;DHT22;114;48.260;10.988;2023-02-28T00:05:21;-1.90;1.00
262;DHT22;114;48.260;10.988;2023-02-28T00:07:47;-1.90;1.00
262;DHT22;114;48.260;10.988;2023-02-28T00:10:17;-1.90;1.00
262;DHT22;114;48.260;10.988;2023-02-28T00:12:50;-1.90;1.00
262;DHT22;114;48.260;10.988;2023-02-28T00:15:16;-2.00;1.00
262;DHT22;114;48.260;10.988;2023-02-28T00:17:42;-2.00;1.00
262;DHT22;114;48.260;10.988;2023-02-28T00:20:09;-2.00;1.00
262;DHT22;114;48.260;10.988;2023-02-28T00:22:36;-1.90;1.00
262;DHT22;114;48.260;10.988;2023-02-28T00:25:03;-1.90;1.00
262;DHT22;114;48.260;10.988;2023-02-28T00:27:30;-1.90;1.00
262;DHT22;114;48.260;10.988;2023-02-28T00:29:55;-2.10;1.00
262;DHT22;114;48.260;10.988;2023-02-28T00:32:21;-2.10;1.00
262;DHT22;114;48.260;10.988;2023-02-28T00:34:47;-2.10;1.70
262;DHT22;114;48.260;10.988;2023-02-28T00:37:13;-2.10;1.00
262;DHT22;114;48.260;10.988;2023-02-28T00:39:39;-2.60;1.00
262;DHT22;114;48.260;10.988;2023-02-28T00:42:06;-2.20;1.60
262;DHT22;114;48.260;10.988;2023-02-28T00:44:32;-2.20;2.50
262;DHT22;114;48.260;10.988;2023-02-28T00:46:58;-2.20;3.60
262;DHT22;114;48.260;10.988;2023-02-28T00:49:25;-2.20;3.30
262;DHT22;114;48.260;10.988;2023-02-28T00:51:52;-2.30;3.40
262;DHT22;114;48.260;10.988;2023-02-28T00:54:18;-2.10;3.30
262;DHT22;114;48.260;10.988;2023-02-28T00:56:45;-2.30;3.80
262;DHT22;114;48.260;10.988;2023-02-28T00:59:15;-2.30;3.90
262;DHT22;114;48.260;10.988;2023-02-28T01:01:42;-2.40;4.10
262;DHT22;114;48.260;10.988;2023-02-28T01:04:08;-2.50;4.20
262;DHT22;114;48.260;10.988;2023-02-28T01:06:34;-2.50;5.10
262;DHT22;114;48.260;10.988;2023-02-28T01:09:00;-2.60;4.70
262;DHT22;114;48.260;10.988;2023-02-28T01:11:26;-2.60;4.70
262;DHT22;114;48.260;10.988;2023-02-28T01:13:52;-2.60;5.50
262;DHT22;114;48.260;10.988;2023-02-28T01:16:18;-2.60;5.90
262;DHT22;114;48.260;10.988;2023-02-28T01:18:44;-2.50;6.40
262;DHT22;114;48.260;10.988;2023-02-28T01:21:15;-2.70;6.30
262;DHT22;114;48.260;10.988;2023-02-28T01:23:41;-2.80;7.10
262;DHT22;114;48.260;10.988;2023-02-28T01:26:10;-2.80;7.50
262;DHT22;114;48.260;10.988;2023-02-28T01:28:36;-2.80;7.90
262;DHT22;114;48.260;10.988;2023-02-28T01:31:02;-2.90;8.60
262;DHT22;114;48.260;10.988;2023-02-28T01:33:28;-2.90;8.40
262;DHT22;114;48.260;10.988;2023-02-28T01:36:01;-2.90;8.10
262;DHT22;114;48.260;10.988;2023-02-28T01:38:27;-2.90;8.10
262;DHT22;114;48.260;10.988;2023-02-28T01:40:53;-2.90;7.90
262;DHT22;114;48.260;10.988;2023-02-28T01:43:29;-2.90;8.40
262;DHT22;114;48.260;10.988;2023-02-28T01:45:57;-3.00;8.40
262;DHT22;114;48.260;10.988;2023-02-28T01:48:29;-2.90;8.00
262;DHT22;114;48.260;10.988;2023-02-28T01:51:00;-3.20;8.50
262;DHT22;114;48.260;10.988;2023-02-28T01:53:32;-2.90;8.40
262;DHT22;114;48.260;10.988;2023-02-28T01:55:59;-3.00;8.70
262;DHT22;114;48.260;10.988;2023-02-28T01:58:25;-2.80;8.90
262;DHT22;114;48.260;10.988;2023-02-28T02:00:51;-2.90;8.70
262;DHT22;114;48.260;10.988;2023-02-28T02:03:18;-3.00;8.40
262;DHT22;114;48.260;10.988;2023-02-28T02:05:45;-3.30;8.40
262;DHT22;114;48.260;10.988;2023-02-28T02:08:17;-3.00;9.10
262;DHT22;114;48.260;10.988;2023-02-28T02:10:46;-3.00;9.30
262;DHT22;114;48.260;10.988;2023-02-28T02:13:37;-3.00;9.20
262;DHT22;114;48.260;10.988;2023-02-28T02:35:27;-3.20;11.70
262;DHT22;114;48.260;10.988;2023-02-28T02:38:15;-3.30;11.60
262;DHT22;114;48.260;10.988;2023-02-28T02:41:08;-3.30;11.60
262;DHT22;114;48.260;10.988;2023-02-28T02:46:43;-3.30;11.60
262;DHT22;114;48.260;10.988;2023-02-28T02:49:24;-3.10;11.80
262;DHT22;114;48.260;10.988;2023-02-28T02:51:52;-3.30;11.40
262;DHT22;114;48.260;10.988;2023-02-28T02:54:29;-3.30;11.60
262;DHT22;114;48.260;10.988;2023-02-28T02:57:01;-3.30;12.30
262;DHT22;114;48.260;10.988;2023-02-28T02:59:30;-3.30;13.10
262;DHT22;114;48.260;10.988;2023-02-28T03:01:59;-3.30;13.30
262;DHT22;114;48.260;10.988;2023-02-28T03:04:30;-3.40;13.50
262;DHT22;114;48.260;10.988;2023-02-28T03:06:57;-3.80;13.00
262;DHT22;114;48.260;10.988;2023-02-28T03:09:25;-3.30;13.30
262;DHT22;114;48.260;10.988;2023-02-28T03:11:54;-3.30;13.70
262;DHT22;114;48.260;10.988;2023-02-28T03:30:39;-3.10;15.80
262;DHT22;114;48.260;10.988;2023-02-28T03:33:16;-3.10;16.00
262;DHT22;114;48.260;10.988;2023-02-28T03:35:55;-3.30;16.80
262;DHT22;114;48.260;10.988;2023-02-28T03:38:29;-3.30;17.40
262;DHT22;114;48.260;10.988;2023-02-28T03:41:10;-3.10;17.70
262;DHT22;114;48.260;10.988;2023-02-28T03:43:40;-3.20;17.80
262;DHT22;114;48.260;10.988;2023-02-28T03:46:10;-3.20;18.10
262;DHT22;114;48.260;10.988;2023-02-28T03:48:51;-3.10;18.10
262;DHT22;114;48.260;10.988;2023-02-28T03:51:22;-3.10;18.10
262;DHT22;114;48.260;10.988;2023-02-28T03:53:54;-3.10;18.20
262;DHT22;114;48.260;10.988;2023-02-28T03:56:27;-2.90;18.30
262;DHT22;114;48.260;10.988;2023-02-28T03:59:13;-3.30;18.30
262;DHT22;114;48.260;10.988;2023-02-28T04:01:42;-2.90;17.80
262;DHT22;114;48.260;10.988;2023-02-28T04:04:10;-2.90;17.80
262;DHT22;114;48.260;10.988;2023-02-28T04:06:36;-2.90;18.20
262;DHT22;114;48.260;10.988;2023-02-28T04:09:04;-2.90;18.10
262;DHT22;114;48.260;10.988;2023-02-28T04:11:34;-2.80;17.70
262;DHT22;114;48.260;10.988;2023-02-28T04:14:01;-2.70;17.00
262;DHT22;114;48.260;10.988;2023-02-28T04:16:28;-2.70;16.90
262;DHT22;114;48.260;10.988;2023-02-28T04:18:54;-2.70;17.20
262;DHT22;114;48.260;10.988;2023-02-28T04:21:28;-3.10;16.40
262;DHT22;114;48.260;10.988;2023-02-28T04:23:55;-2.60;16.10
262;DHT22;114;48.260;10.988;2023-02-28T04:26:20;-2.60;16.70
262;DHT22;114;48.260;10.988;2023-02-28T04:28:46;-2.60;16.10
262;DHT22;114;48.260;10.988;2023-02-28T04:31:12;-2.60;16.40
262;DHT22;114;48.260;10.988;2023-02-28T04:33:37;-2.50;16.80
262;DHT22;114;48.260;10.988;2023-02-28T04:36:06;-2.50;15.70
262;DHT22;114;48.260;10.988;2023-02-28T04:38:35;-2.50;16.30
262;DHT22;114;48.260;10.988;2023-02-28T04:41:01;-2.40;15.90
262;DHT22;114;48.260;10.988;2023-02-28T04:43:28;-2.40;15.70
262;DHT22;114;48.260;10.988;2023-02-28T04:45:55;-2.50;16.20
262;DHT22;114;48.260;10.988;2023-02-28T04:48:29;-2.40;15.00
262;DHT22;114;48.260;10.988;2023-02-28T04:51:08;-2.40;15.20
262;DHT22;114;48.260;10.988;2023-02-28T04:53:35;-2.30;16.30
262;DHT22;114;48.260;10.988;2023-02-28T04:56:01;-2.40;16.30
262;DHT22;114;48.260;10.988;2023-02-28T04:58:27;-2.40;16.30
262;DHT22;114;48.260;10.988;2023-02-28T05:00:54;-2.60;15.30
262;DHT22;114;48.260;10.988;2023-02-28T05:03:20;-2.40;15.50
262;DHT22;114;48.260;10.988;2023-02-28T05:05:47;-2.40;16.10
262;DHT22;114;48.260;10.988;2023-02-28T05:08:13;-2.40;16.00
262;DHT22;114;48.260;10.988;2023-02-28T05:10:39;-2.30;16.30
262;DHT22;114;48.260;10.988;2023-02-28T05:13:05;-2.30;15.40
262;DHT22;114;48.260;10.988;2023-02-28T05:15:30;-2.40;15.50
262;DHT22;114;48.260;10.988;2023-02-28T05:17:56;-2.30;14.40
262;DHT22;114;48.260;10.988;2023-02-28T05:20:22;-2.20;14.60
262;DHT22;114;48.260;10.988;2023-02-28T05:22:49;-2.30;13.70
262;DHT22;114;48.260;10.988;2023-02-28T05:25:19;-2.30;14.00
262;DHT22;114;48.260;10.988;2023-02-28T05:27:45;-2.30;14.50
262;DHT22;114;48.260;10.988;2023-02-28T05:30:11;-2.30;13.50
262;DHT22;114;48.260;10.988;2023-02-28T05:32:41;-2.30;13.10
262;DHT22;114;48.260;10.988;2023-02-28T05:35:09;-2.30;14.10
262;DHT22;114;48.260;10.988;2023-02-28T05:37:36;-2.30;14.40
262;DHT22;114;48.260;10.988;2023-02-28T05:40:03;-2.20;14.30
262;DHT22;114;48.260;10.988;2023-02-28T05:42:32;-2.20;12.40
262;DHT22;114;48.260;10.988;2023-02-28T05:44:57;-2.20;12.50
262;DHT22;114;48.260;10.988;2023-02-28T05:47:23;-2.30;12.60
262;DHT22;114;48.260;10.988;2023-02-28T05:49:50;-2.30;12.30
262;DHT22;114;48.260;10.988;2023-02-28T05:52:16;-2.30;12.30
262;DHT22;114;48.260;10.988;2023-02-28T05:54:42;-2.30;12.90
262;DHT22;114;48.260;10.988;2023-02-28T05:57:08;-2.30;12.70
262;DHT22;114;48.260;10.988;2023-02-28T05:59:34;-2.20;12.40
262;DHT22;114;48.260;10.988;2023-02-28T06:01:59;-2.30;12.30
262;DHT22;114;48.260;10.988;2023-02-28T06:04:25;-2.30;11.30
262;DHT22;114;48.260;10.988;2023-02-28T06:06:51;-2.20;11.90
262;DHT22;114;48.260;10.988;2023-02-28T06:09:18;-2.30;12.30
262;DHT22;114;48.260;10.988;2023-02-28T06:11:44;-2.30;12.10
262;DHT22;114;48.260;10.988;2023-02-28T06:14:18;-2.20;12.10
262;DHT22;114;48.260;10.988;2023-02-28T06:16:44;-2.30;10.90
262;DHT22;114;48.260;10.988;2023-02-28T06:19:10;-2.20;11.30
262;DHT22;114;48.260;10.988;2023-02-28T06:21:36;-2.20;11.30
262;DHT22;114;48.260;10.988;2023-02-28T06:24:02;-2.20;11.50
262;DHT22;114;48.260;10.988;2023-02-28T06:26:28;-2.20;10.70
262;DHT22;114;48.260;10.988;2023-02-28T06:28:54;-2.20;11.70
262;DHT22;114;48.260;10.988;2023-02-28T06:31:21;-2.20;11.70
262;DHT22;114;48.260;10.988;2023-02-28T06:33:48;-2.20;11.30
262;DHT22;114;48.260;10.988;2023-02-28T06:36:15;-2.20;10.30
262;DHT22;114;48.260;10.988;2023-02-28T06:38:41;-2.20;10.50
262;DHT22;114;48.260;10.988;2023-02-28T06:41:07;-2.20;9.80
262;DHT22;114;48.260;10.988;2023-02-28T06:43:36;-2.20;9.40
262;DHT22;114;48.260;10.988;2023-02-28T06:46:06;-2.30;9.70
262;DHT22;114;48.260;10.988;2023-02-28T06:48:32;-2.30;10.00
262;DHT22;114;48.260;10.988;2023-02-28T06:51:03;-2.20;9.90
262;DHT22;114;48.260;10.988;2023-02-28T06:53:29;-2.20;9.60
262;DHT22;114;48.260;10.988;2023-02-28T06:55:55;-2.10;9.90
262;DHT22;114;48.260;10.988;2023-02-28T06:58:20;-2.20;10.40
262;DHT22;114;48.260;10.988;2023-02-28T07:00:51;-2.20;10.70
262;DHT22;114;48.260;10.988;2023-02-28T07:03:17;-2.00;8.60
262;DHT22;114;48.260;10.988;2023-02-28T07:05:44;-2.20;8.80
262;DHT22;114;48.260;10.988;2023-02-28T07:08:10;-2.10;9.60
262;DHT22;114;48.260;10.988;2023-02-28T07:10:39;-2.00;9.40
262;DHT22;114;48.260;10.988;2023-02-28T07:13:06;-1.90;9.00
262;DHT22;114;48.260;10.988;2023-02-28T07:15:32;-1.70;9.60
262;DHT22;114;48.260;10.988;2023-02-28T07:17:58;-1.90;8.80
262;DHT22;114;48.260;10.988;2023-02-28T07:20:24;-1.90;7.80
262;DHT22;114;48.260;10.988;2023-02-28T07:22:50;-1.90;8.50
262;DHT22;114;48.260;10.988;2023-02-28T07:25:26;-2.00;7.90
262;DHT22;114;48.260;10.988;2023-02-28T07:27:54;-2.00;8.10
262;DHT22;114;48.260;10.988;2023-02-28T07:30:20;-2.00;8.20
262;DHT22;114;48.260;10.988;2023-02-28T07:32:46;-2.00;7.90
262;DHT22;114;48.260;10.988;2023-02-28T07:35:12;-2.00;7.60
262;DHT22;114;48.260;10.988;2023-02-28T07:37:38;-2.00;8.90
262;DHT22;114;48.260;10.988;2023-02-28T07:40:06;-1.90;7.30
262;DHT22;114;48.260;10.988;2023-02-28T07:42:35;-1.90;8.30
262;DHT22;114;48.260;10.988;2023-02-28T07:45:01;-1.70;8.00
262;DHT22;114;48.260;10.988;2023-02-28T07:47:29;-1.80;7.40
262;DHT22;114;48.260;10.988;2023-02-28T07:49:55;-1.70;6.70
262;DHT22;114;48.260;10.988;2023-02-28T07:52:21;-1.80;6.60
262;DHT22;114;48.260;10.988;2023-02-28T07:54:49;-1.60;7.60
262;DHT22;114;48.260;10.988;2023-02-28T07:57:15;-1.60;6.20
262;DHT22;114;48.260;10.988;2023-02-28T07:59:42;-1.60;4.60
262;DHT22;114;48.260;10.988;2023-02-28T08:02:15;-1.60;5.40
262;DHT22;114;48.260;10.988;2023-02-28T08:04:42;-1.60;5.10
262;DHT22;114;48.260;10.988;2023-02-28T08:07:08;-1.80;5.30
262;DHT22;114;48.260;10.988;2023-02-28T08:09:39;-1.80;5.30
262;DHT22;114;48.260;10.988;2023-02-28T08:12:06;-1.60;5.10
262;DHT22;114;48.260;10.988;2023-02-28T08:14:33;-1.70;5.20
262;DHT22;114;48.260;10.988;2023-02-28T08:16:59;-1.70;5.50
262;DHT22;114;48.260;10.988;2023-02-28T08:19:24;-1.60;4.60
262;DHT22;114;48.260;10.988;2023-02-28T08:21:50;-1.60;4.60
262;DHT22;114;48.260;10.988;2023-02-28T08:24:16;-1.60;4.90
262;DHT22;114;48.260;10.988;2023-02-28T08:26:41;-1.50;4.80
262;DHT22;114;48.260;10.988;2023-02-28T08:29:07;-1.50;5.60
262;DHT22;114;48.260;10.988;2023-02-28T08:31:33;-1.40;3.40
262;DHT22;114;48.260;10.988;2023-02-28T08:34:08;-1.50;3.10
262;DHT22;114;48.260;10.988;2023-02-28T08:36:34;-1.40;2.40
262;DHT22;114;48.260;10.988;2023-02-28T08:39:00;-1.40;3.50
262;DHT22;114;48.260;10.988;2023-02-28T08:41:25;-1.40;2.30
262;DHT22;114;48.260;10.988;2023-02-28T08:43:51;-1.50;2.90
262;DHT22;114;48.260;10.988;2023-02-28T08:46:17;-1.30;2.90
262;DHT22;114;48.260;10.988;2023-02-28T08:48:43;-1.00;2.80
262;DHT22;114;48.260;10.988;2023-02-28T08:51:15;-0.90;1.00
262;DHT22;114;48.260;10.988;2023-02-28T08:53:44;-0.90;1.00
262;DHT22;114;48.260;10.988;2023-02-28T08:56:12;-1.20;1.00
262;DHT22;114;48.260;10.988;2023-02-28T08:58:39;-1.10;1.00
262;DHT22;114;48.260;10.988;2023-02-28T09:01:16;-0.90;1.00
262;DHT22;114;48.260;10.988;2023-02-28T09:03:42;-1.00;1.00
262;DHT22;114;48.260;10.988;2023-02-28T09:06:09;-0.80;1.00
262;DHT22;114;48.260;10.988;2023-02-28T09:08:35;-0.70;1.00
262;DHT22;114;48.260;10.988;2023-02-28T09:11:01;-0.80;1.00
262;DHT22;114;48.260;10.988;2023-02-28T09:13:29;-0.80;1.00
262;DHT22;114;48.260;10.988;2023-02-28T09:15:59;-1.00;1.00
262;DHT22;114;48.260;10.988;2023-02-28T09:18:25;-1.00;1.00
262;DHT22;114;48.260;10.988;2023-02-28T09:20:51;-0.80;1.00
262;DHT22;114;48.260;10.988;2023-02-28T09:23:17;-0.60;1.00
262;DHT22;114;48.260;10.988;2023-02-28T09:25:51;-0.60;1.00
262;DHT22;114;48.260;10.988;2023-02-28T09:28:18;-0.50;1.00
262;DHT22;114;48.260;10.988;2023-02-28T09:30:45;-0.60;1.00
262;DHT22;114;48.260;10.988;2023-02-28T09:33:12;-0.50;1.00
262;DHT22;114;48.260;10.988;2023-02-28T09:35:38;-0.30;1.00
262;DHT22;114;48.260;10.988;2023-02-28T09:38:04;-0.30;1.00
262;DHT22;114;48.260;10.988;2023-02-28T09:40:31;-0.50;1.00
262;DHT22;114;48.260;10.988;2023-02-28T09:42:58;-0.40;1.00
262;DHT22;114;48.260;10.988;2023-02-28T09:45:31;-0.40;1.00
262;DHT22;114;48.260;10.988;2023-02-28T09:48:21;-0.30;1.00
262;DHT22;114;48.260;10.988;2023-02-28T09:50:59;-0.40;1.00
262;DHT22;114;48.260;10.988;2023-02-28T09:53:32;-0.50;1.00
262;DHT22;114;48.260;10.988;2023-02-28T09:56:18;-0.30;1.00
262;DHT22;114;48.260;10.988;2023-02-28T10:01:50;0.20;1.00
262;DHT22;114;48.260;10.988;2023-02-28T10:04:40;0.40;1.00
262;DHT22;114;48.260;10.988;2023-02-28T10:09:53;0.40;1.00
262;DHT22;114;48.260;10.988;2023-02-28T10:12:19;0.40;1.00
262;DHT22;114;48.260;10.988;2023-02-28T10:14:47;0.60;1.00
262;DHT22;114;48.260;10.988;2023-02-28T10:17:27;0.70;1.00
262;DHT22;114;48.260;10.988;2023-02-28T10:20:06;1.00;1.00
262;DHT22;114;48.260;10.988;2023-02-28T10:23:00;0.70;1.00
262;DHT22;114;48.260;10.988;2023-02-28T10:25:35;0.60;1.00
262;DHT22;114;48.260;10.988;2023-02-28T10:28:13;1.10;1.00
262;DHT22;114;48.260;10.988;2023-02-28T10:30:42;1.80;1.00
262;DHT22;114;48.260;10.988;2023-02-28T10:33:25;2.70;1.00
262;DHT22;114;48.260;10.988;2023-02-28T10:35:52;2.80;1.00
262;DHT22;114;48.260;10.988;2023-02-28T10:38:22;2.50;1.00
262;DHT22;114;48.260;10.988;2023-02-28T10:40:49;2.20;1.00
262;DHT22;114;48.260;10.988;2023-02-28T10:59:43;2.20;1.00
262;DHT22;114;48.260;10.988;2023-02-28T11:01:49;2.30;1.00
262;DHT22;114;48.260;10.988;2023-02-28T11:04:23;2.90;1.00
262;DHT22;114;48.260;10.988;2023-02-28T11:07:06;3.50;1.00
262;DHT22;114;48.260;10.988;2023-02-28T11:09:41;3.40;1.00
262;DHT22;114;48.260;10.988;2023-02-28T11:12:23;3.50;1.00
262;DHT22;114;48.260;10.988;2023-02-28T11:15:22;3.40;1.00
262;DHT22;114;48.260;10.988;2023-02-28T11:17:54;2.80;1.00
262;DHT22;114;48.260;10.988;2023-02-28T11:20:23;3.80;1.00
262;DHT22;114;48.260;10.988;2023-02-28T11:22:51;4.30;1.00
262;DHT22;114;48.260;10.988;2023-02-28T11:25:24;4.80;1.00
262;DHT22;114;48.260;10.988;2023-02-28T11:27:54;5.30;1.00
262;DHT22;114;48.260;10.988;2023-02-28T11:30:26;5.90;1.00
262;DHT22;114;48.260;10.988;2023-02-28T11:32:53;5.70;1.00
262;DHT22;114;48.260;10.988;2023-02-28T11:37:49;3.80;1.00
262;DHT22;114;48.260;10.988;2023-02-28T11:40:18;3.60;1.00
262;DHT22;114;48.260;10.988;2023-02-28T11:45:43;5.10;1.00
262;DHT22;114;48.260;10.988;2023-02-28T11:48:28;6.70;1.00
262;DHT22;114;48.260;10.988;2023-02-28T11:59:35;6.90;1.00
262;DHT22;114;48.260;10.988;2023-02-28T12:02:16;6.70;1.00
262;DHT22;114;48.260;10.988;2023-02-28T12:04:58;6.10;1.00
262;DHT22;114;48.260;10.988;2023-02-28T12:10:06;8.20;1.00
262;DHT22;114;48.260;10.988;2023-02-28T12:18:06;11.40;1.00
262;DHT22;114;48.260;10.988;2023-02-28T12:20:46;10.90;1.00
262;DHT22;114;48.260;10.988;2023-02-28T12:26:06;9.70;1.00
262;DHT22;114;48.260;10.988;2023-02-28T12:28:40;7.50;1.00
262;DHT22;114;48.260;10.988;2023-02-28T12:31:19;7.30;1.00
262;DHT22;114;48.260;10.988;2023-02-28T12:33:50;7.10;1.00
262;DHT22;114;48.260;10.988;2023-02-28T12:36:19;8.20;1.00
262;DHT22;114;48.260;10.988;2023-02-28T12:38:48;8.20;1.00
262;DHT22;114;48.260;10.988;2023-02-28T12:41:19;7.80;1.00
262;DHT22;114;48.260;10.988;2023-02-28T12:43:58;8.10;1.00
262;DHT22;114;48.260;10.988;2023-02-28T12:46:34;7.10;1.00
262;DHT22;114;48.260;10.988;2023-02-28T12:49:37;7.50;1.00
262;DHT22;114;48.260;10.988;2023-02-28T12:52:01;9.90;1.00
262;DHT22;114;48.260;10.988;2023-02-28T12:54:40;11.80;1.00
262;DHT22;114;48.260;10.988;2023-02-28T12:57:25;12.00;1.00
262;DHT22;114;48.260;10.988;2023-02-28T13:00:21;12.90;1.00
262;DHT22;114;48.260;10.988;2023-02-28T13:05:55;11.00;1.00
262;DHT22;114;48.260;10.988;2023-02-28T13:10:58;8.20;1.00
262;DHT22;114;48.260;10.988;2023-02-28T13:13:25;9.70;1.00
262;DHT22;114;48.260;10.988;2023-02-28T13:16:07;11.80;1.00
262;DHT22;114;48.260;10.988;2023-02-28T13:18:42;11.50;1.00
262;DHT22;114;48.260;10.988;2023-02-28T13:21:28;12.20;1.00
262;DHT22;114;48.260;10.988;2023-02-28T13:24:01;12.00;1.00
262;DHT22;114;48.260;10.988;2023-02-28T13:29:01;9.60;1.00
262;DHT22;114;48.260;10.988;2023-02-28T13:31:27;9.10;1.00
262;DHT22;114;48.260;10.988;2023-02-28T13:36:32;9.20;1.00
262;DHT22;114;48.260;10.988;2023-02-28T13:39:03;7.30;1.00
262;DHT22;114;48.260;10.988;2023-02-28T13:44:37;5.30;1.00
262;DHT22;114;48.260;10.988;2023-02-28T13:49:28;5.30;1.00
262;DHT22;114;48.260;10.988;2023-02-28T14:06:28;11.90;1.00
262;DHT22;114;48.260;10.988;2023-02-28T14:09:06;11.30;1.00
262;DHT22;114;48.260;10.988;2023-02-28T14:11:43;11.50;1.00
262;DHT22;114;48.260;10.988;2023-02-28T14:16:55;8.40;1.00
262;DHT22;114;48.260;10.988;2023-02-28T14:19:26;7.70;1.00
262;DHT22;114;48.260;10.988;2023-02-28T14:28:25;8.40;1.00
262;DHT22;114;48.260;10.988;2023-02-28T14:31:06;8.30;1.00
262;DHT22;114;48.260;10.988;2023-02-28T14:33:47;7.50;1.00
262;DHT22;114;48.260;10.988;2023-02-28T14:36:35;6.30;1.00
262;DHT22;114;48.260;10.988;2023-02-28T14:39:06;5.40;1.00
262;DHT22;114;48.260;10.988;2023-02-28T14:41:35;5.00;1.00
262;DHT22;114;48.260;10.988;2023-02-28T14:44:11;4.90;1.00
262;DHT22;114;48.260;10.988;2023-02-28T14:46:39;4.60;1.00
262;DHT22;114;48.260;10.988;2023-02-28T14:49:12;4.50;1.00
262;DHT22;114;48.260;10.988;2023-02-28T14:51:38;4.40;1.00
262;DHT22;114;48.260;10.988;2023-02-28T14:54:04;4.20;1.00
262;DHT22;114;48.260;10.988;2023-02-28T14:56:35;4.00;1.00
262;DHT22;114;48.260;10.988;2023-02-28T14:59:03;4.10;1.00
262;DHT22;114;48.260;10.988;2023-02-28T15:01:29;4.00;1.00
262;DHT22;114;48.260;10.988;2023-02-28T15:04:03;4.10;1.00
262;DHT22;114;48.260;10.988;2023-02-28T15:06:30;4.10;1.00
262;DHT22;114;48.260;10.988;2023-02-28T15:09:11;4.10;1.00
262;DHT22;114;48.260;10.988;2023-02-28T15:11:39;4.00;1.00
262;DHT22;114;48.260;10.988;2023-02-28T15:14:05;3.90;1.00
262;DHT22;114;48.260;10.988;2023-02-28T15:16:40;3.90;1.00
262;DHT22;114;48.260;10.988;2023-02-28T15:19:28;3.80;1.00
262;DHT22;114;48.260;10.988;2023-02-28T15:22:16;3.70;1.00
262;DHT22;114;48.260;10.988;2023-02-28T15:24:49;3.50;1.00
262;DHT22;114;48.260;10.988;2023-02-28T15:29:48;3.40;1.00
262;DHT22;114;48.260;10.988;2023-02-28T15:32:31;3.40;1.00
262;DHT22;114;48.260;10.988;2023-02-28T15:34:59;3.40;1.00
262;DHT22;114;48.260;10.988;2023-02-28T15:40:29;3.30;1.00
262;DHT22;114;48.260;10.988;2023-02-28T15:43:12;3.30;1.00
262;DHT22;114;48.260;10.988;2023-02-28T15:50:50;3.00;1.00
262;DHT22;114;48.260;10.988;2023-02-28T15:53:21;3.00;1.00
262;DHT22;114;48.260;10.988;2023-02-28T15:55:57;2.90;1.00
262;DHT22;114;48.260;10.988;2023-02-28T15:58:24;2.90;1.00
262;DHT22;114;48.260;10.988;2023-02-28T16:01:06;2.80;1.00
262;DHT22;114;48.260;10.988;2023-02-28T16:03:43;2.80;1.00
262;DHT22;114;48.260;10.988;2023-02-28T16:06:38;2.80;1.00
262;DHT22;114;48.260;10.988;2023-02-28T16:09:07;2.70;1.00
262;DHT22;114;48.260;10.988;2023-02-28T16:11:37;2.70;1.00
262;DHT22;114;48.260;10.988;2023-02-28T16:14:04;2.60;1.00
262;DHT22;114;48.260;10.988;2023-02-28T16:16:31;2.60;1.00
262;DHT22;114;48.260;10.988;2023-02-28T16:18:57;2.50;1.00
262;DHT22;114;48.260;10.988;2023-02-28T16:21:24;2.50;1.00
262;DHT22;114;48.260;10.988;2023-02-28T16:23:50;2.50;1.00
262;DHT22;114;48.260;10.988;2023-02-28T16:26:21;2.40;1.00
262;DHT22;114;48.260;10.988;2023-02-28T16:28:48;2.30;1.00
262;DHT22;114;48.260;10.988;2023-02-28T16:31:15;2.20;1.00
262;DHT22;114;48.260;10.988;2023-02-28T16:33:43;2.20;1.00
262;DHT22;114;48.260;10.988;2023-02-28T16:36:17;2.10;1.00
262;DHT22;114;48.260;10.988;2023-02-28T16:38:43;2.00;1.00
262;DHT22;114;48.260;10.988;2023-02-28T16:41:13;2.00;1.00
262;DHT22;114;48.260;10.988;2023-02-28T16:43:47;1.90;1.00
262;DHT22;114;48.260;10.988;2023-02-28T16:46:15;1.90;1.00
262;DHT22;114;48.260;10.988;2023-02-28T16:48:43;1.90;1.00
262;DHT22;114;48.260;10.988;2023-02-28T16:51:13;1.90;1.00
262;DHT22;114;48.260;10.988;2023-02-28T16:53:39;1.70;1.00
262;DHT22;114;48.260;10.988;2023-02-28T16:56:06;1.60;1.00
262;DHT22;114;48.260;10.988;2023-02-28T16:58:32;1.50;1.00
262;DHT22;114;48.260;10.988;2023-02-28T17:01:02;1.40;1.00
262;DHT22;114;48.260;10.988;2023-02-28T17:03:28;1.30;1.00
262;DHT22;114;48.260;10.988;2023-02-28T17:05:55;1.20;1.00
262;DHT22;114;48.260;10.988;2023-02-28T17:08:21;1.20;1.00
262;DHT22;114;48.260;10.988;2023-02-28T17:10:47;1.10;1.00
262;DHT22;114;48.260;10.988;2023-02-28T17:13:12;0.90;1.00
262;DHT22;114;48.260;10.988;2023-02-28T17:15:38;0.90;1.00
262;DHT22;114;48.260;10.988;2023-02-28T17:18:05;0.80;1.00
262;DHT22;114;48.260;10.988;2023-02-28T17:20:32;0.70;1.00
262;DHT22;114;48.260;10.988;2023-02-28T17:22:58;0.70;1.00
262;DHT22;114;48.260;10.988;2023-02-28T17:25:24;0.60;1.00
262;DHT22;114;48.260;10.988;2023-02-28T17:27:50;0.50;1.00
262;DHT22;114;48.260;10.988;2023-02-28T17:30:23;0.60;1.40
262;DHT22;114;48.260;10.988;2023-02-28T17:32:49;0.50;2.10
262;DHT22;114;48.260;10.988;2023-02-28T17:35:15;0.40;3.20
262;DHT22;114;48.260;10.988;2023-02-28T17:37:41;0.30;4.40
262;DHT22;114;48.260;10.988;2023-02-28T17:40:22;0.30;5.00
262;DHT22;114;48.260;10.988;2023-02-28T17:42:48;0.20;5.70
262;DHT22;114;48.260;10.988;2023-02-28T17:45:14;0.10;5.60
262;DHT22;114;48.260;10.988;2023-02-28T17:47:43;0.10;6.30
262;DHT22;114;48.260;10.988;2023-02-28T17:50:15;0.10;6.80
262;DHT22;114;48.260;10.988;2023-02-28T17:52:41;0.00;7.30
262;DHT22;114;48.260;10.988;2023-02-28T17:55:09;-0.10;7.90
262;DHT22;114;48.260;10.988;2023-02-28T17:57:35;-0.10;9.00
262;DHT22;114;48.260;10.988;2023-02-28T18:00:00;-0.20;9.60
262;DHT22;114;48.260;10.988;2023-02-28T18:02:30;-0.20;9.90
262;DHT22;114;48.260;10.988;2023-02-28T18:04:56;-0.20;10.60
262;DHT22;114;48.260;10.988;2023-02-28T18:07:24;-0.30;11.30
262;DHT22;114;48.260;10.988;2023-02-28T18:09:50;-0.30;11.70
262;DHT22;114;48.260;10.988;2023-02-28T18:12:16;-0.40;11.60
262;DHT22;114;48.260;10.988;2023-02-28T18:14:41;-0.40;11.50
262;DHT22;114;48.260;10.988;2023-02-28T18:17:10;-0.40;11.80
262;DHT22;114;48.260;10.988;2023-02-28T18:19:37;-0.40;11.50
262;DHT22;114;48.260;10.988;2023-02-28T18:22:04;-0.40;11.30
262;DHT22;114;48.260;10.988;2023-02-28T18:24:32;-0.40;11.60
262;DHT22;114;48.260;10.988;2023-02-28T18:26:58;-0.40;11.80
262;DHT22;114;48.260;10.988;2023-02-28T18:29:26;-0.40;12.00
262;DHT22;114;48.260;10.988;2023-02-28T18:31:54;-0.40;11.70
262;DHT22;114;48.260;10.988;2023-02-28T18:34:21;-0.30;12.00
262;DHT22;114;48.260;10.988;2023-02-28T18:36:48;-0.30;12.00
262;DHT22;114;48.260;10.988;2023-02-28T18:39:15;-0.20;11.80
262;DHT22;114;48.260;10.988;2023-02-28T18:41:41;-0.10;11.40
262;DHT22;114;48.260;10.988;2023-02-28T18:44:07;0.00;11.00
262;DHT22;114;48.260;10.988;2023-02-28T18:46:33;-0.10;10.60
262;DHT22;114;48.260;10.988;2023-02-28T18:49:00;0.00;10.20
262;DHT22;114;48.260;10.988;2023-02-28T18:51:27;0.10;9.80
262;DHT22;114;48.260;10.988;2023-02-28T18:53:53;0.10;9.70
262;DHT22;114;48.260;10.988;2023-02-28T18:56:22;0.20;9.00
262;DHT22;114;48.260;10.988;2023-02-28T18:58:48;0.30;8.70
262;DHT22;114;48.260;10.988;2023-02-28T19:03:45;0.40;8.20
262;DHT22;114;48.260;10.988;2023-02-28T19:06:11;0.40;8.20
262;DHT22;114;48.260;10.988;2023-02-28T19:08:37;0.40;8.00
262;DHT22;114;48.260;10.988;2023-02-28T19:11:11;0.50;7.90